北京 の空港の天気 - METARとTAF

北京首都国際空港 ( ZBAA / PEK ) - 中国 北京市
飛行場実況気象(Metar)
観測時間06/18 03:30 CST (06/17 19:30 UTC)
風向・風速北北東 1m/s
視程4000m
天気現象もや
なし
気温19℃
湿度94%
気圧1006hPa
METARZBAA 171930Z 02001MPS 4000 BR NSC 19/18 Q1006 NOSIG
過去の天気等 Google飛行場航空写真 Wunderground天気予報

過去48時間のMETAR

飛行場予報(TAF)
発表時間: 6/17 23:30 CST (6/17 15:30 UTC)
予報対象時間: 18日2時 CST ~ 19日2時 CST
風向・風速南南東 4m/s
視程3500m
天気現象もや
なし
TAF ZBAA 171530Z 1718/1818 16004MPS 3500 BR NSC TX33/1807Z TN17/1721Z